DNO455 LGAV-LGSM
Flight info
| Callsign | DNO455 |
|---|---|
| Flight time | 0h 37m |
| Altitude | 21000 |
| Route | KEA L995 RIPLI P32 IKARO L609 URNIL |
| Aircraft | A320/M-SDE3FGHIRWY/LB1 |
Departure
| Time | 2026-05-05 13:28 |
|---|---|
| Airport | Athens Eleftherios Venizelos International Airport (LGAV) |
Arrival
| Time | 2026-05-05 14:05 |
|---|---|
| Airport | Samos Airport (LGSM) |
| Time | Latitude | Longitude | Altitude | Speed | Heading |
|---|---|---|---|---|---|
| 2026-05-05 12:37 | 37.94169 | 23.95308 | 316 ft | 0 kts | 217° |
| 2026-05-05 13:18 | 37.94170 | 23.95309 | 316 ft | 1 kts | 217° |
| 2026-05-05 13:18 | 37.94182 | 23.95320 | 316 ft | 2 kts | 217° |
| 2026-05-05 13:18 | 37.94194 | 23.95332 | 316 ft | 2 kts | 217° |
| 2026-05-05 13:19 | 37.94202 | 23.95340 | 316 ft | 0 kts | 217° |
| 2026-05-05 13:19 | 37.94214 | 23.95348 | 316 ft | 2 kts | 182° |
| 2026-05-05 13:19 | 37.94229 | 23.95344 | 316 ft | 2 kts | 145° |
| 2026-05-05 13:19 | 37.94235 | 23.95337 | 316 ft | 1 kts | 125° |
| 2026-05-05 13:20 | 37.94238 | 23.95331 | 316 ft | 0 kts | 127° |
| 2026-05-05 13:22 | 37.94229 | 23.95347 | 316 ft | 7 kts | 127° |
| 2026-05-05 13:22 | 37.94187 | 23.95416 | 316 ft | 10 kts | 127° |
| 2026-05-05 13:22 | 37.94152 | 23.95492 | 316 ft | 10 kts | 102° |
| 2026-05-05 13:22 | 37.94119 | 23.95574 | 316 ft | 10 kts | 127° |
| 2026-05-05 13:23 | 37.94079 | 23.95657 | 316 ft | 11 kts | 95° |
| 2026-05-05 13:23 | 37.94126 | 23.95734 | 316 ft | 12 kts | 37° |
| 2026-05-05 13:23 | 37.94196 | 23.95801 | 316 ft | 12 kts | 37° |
| 2026-05-05 13:23 | 37.94270 | 23.95871 | 316 ft | 13 kts | 37° |
| 2026-05-05 13:24 | 37.94347 | 23.95945 | 316 ft | 14 kts | 37° |
| 2026-05-05 13:24 | 37.94427 | 23.96022 | 316 ft | 14 kts | 37° |
| 2026-05-05 13:24 | 37.94511 | 23.96102 | 316 ft | 15 kts | 37° |
| 2026-05-05 13:24 | 37.94598 | 23.96183 | 316 ft | 15 kts | 37° |
| 2026-05-05 13:25 | 37.94686 | 23.96268 | 316 ft | 16 kts | 37° |
| 2026-05-05 13:25 | 37.94775 | 23.96353 | 316 ft | 16 kts | 37° |
| 2026-05-05 13:25 | 37.94867 | 23.96441 | 316 ft | 16 kts | 37° |
| 2026-05-05 13:25 | 37.94961 | 23.96531 | 315 ft | 19 kts | 36° |
| 2026-05-05 13:26 | 37.95083 | 23.96645 | 315 ft | 21 kts | 37° |
| 2026-05-05 13:26 | 37.95204 | 23.96760 | 315 ft | 21 kts | 38° |
| 2026-05-05 13:26 | 37.95295 | 23.96882 | 315 ft | 18 kts | 92° |
| 2026-05-05 13:26 | 37.95238 | 23.96997 | 315 ft | 9 kts | 139° |
| 2026-05-05 13:27 | 37.95184 | 23.97013 | 315 ft | 8 kts | 200° |
| 2026-05-05 13:27 | 37.95069 | 23.96909 | 315 ft | 46 kts | 217° |
| 2026-05-05 13:27 | 37.94631 | 23.96492 | 316 ft | 109 kts | 217° |
| 2026-05-05 13:27 | 37.93875 | 23.95771 | 318 ft | 160 kts | 216° |
| 2026-05-05 13:28 | 37.92935 | 23.94904 | 660 ft | 171 kts | 211° |
| 2026-05-05 13:28 | 37.91883 | 23.94204 | 1270 ft | 171 kts | 204° |
| 2026-05-05 13:28 | 37.90820 | 23.93583 | 1859 ft | 172 kts | 204° |
| 2026-05-05 13:28 | 37.89726 | 23.92942 | 2427 ft | 173 kts | 205° |
| 2026-05-05 13:29 | 37.88659 | 23.92283 | 2899 ft | 173 kts | 207° |
| 2026-05-05 13:29 | 37.87574 | 23.91576 | 3378 ft | 175 kts | 209° |
| 2026-05-05 13:29 | 37.86494 | 23.90807 | 3746 ft | 184 kts | 211° |
| 2026-05-05 13:29 | 37.85358 | 23.89980 | 4066 ft | 197 kts | 210° |
| 2026-05-05 13:30 | 37.84016 | 23.89406 | 4351 ft | 214 kts | 179° |
| 2026-05-05 13:30 | 37.82630 | 23.90078 | 4785 ft | 221 kts | 137° |
| 2026-05-05 13:30 | 37.81808 | 23.91721 | 5149 ft | 232 kts | 98° |
| 2026-05-05 13:30 | 37.81712 | 23.93783 | 5746 ft | 237 kts | 89° |
| 2026-05-05 13:31 | 37.81644 | 23.95851 | 6412 ft | 242 kts | 90° |
| 2026-05-05 13:31 | 37.81551 | 23.98036 | 6875 ft | 257 kts | 90° |
| 2026-05-05 13:31 | 37.81451 | 24.00375 | 7297 ft | 275 kts | 90° |
| 2026-05-05 13:31 | 37.81347 | 24.02825 | 7920 ft | 284 kts | 90° |
| 2026-05-05 13:32 | 37.81242 | 24.05305 | 8704 ft | 287 kts | 89° |
| 2026-05-05 13:32 | 37.81136 | 24.07814 | 9434 ft | 289 kts | 89° |
| 2026-05-05 13:32 | 37.81030 | 24.10347 | 10203 ft | 291 kts | 89° |
| 2026-05-05 13:32 | 37.80925 | 24.12927 | 10709 ft | 302 kts | 88° |
| 2026-05-05 13:33 | 37.80817 | 24.15651 | 11034 ft | 319 kts | 89° |
| 2026-05-05 13:33 | 37.80702 | 24.18505 | 11309 ft | 335 kts | 89° |
| 2026-05-05 13:33 | 37.80576 | 24.21518 | 11585 ft | 351 kts | 89° |
| 2026-05-05 13:33 | 37.80441 | 24.24659 | 11861 ft | 365 kts | 89° |
| 2026-05-05 13:34 | 37.80302 | 24.27867 | 12316 ft | 373 kts | 89° |
| 2026-05-05 13:34 | 37.80157 | 24.31138 | 12901 ft | 376 kts | 89° |
| 2026-05-05 13:34 | 37.80011 | 24.34439 | 13514 ft | 378 kts | 89° |
| 2026-05-05 13:34 | 37.79865 | 24.37785 | 14054 ft | 382 kts | 89° |
| 2026-05-05 13:35 | 37.79718 | 24.41113 | 14569 ft | 386 kts | 89° |
| 2026-05-05 13:35 | 37.79568 | 24.44528 | 15084 ft | 390 kts | 89° |
| 2026-05-05 13:35 | 37.79416 | 24.47967 | 15567 ft | 394 kts | 89° |
| 2026-05-05 13:35 | 37.79260 | 24.51432 | 16053 ft | 397 kts | 89° |
| 2026-05-05 13:36 | 37.79103 | 24.54869 | 16526 ft | 401 kts | 89° |
| 2026-05-05 13:36 | 37.78943 | 24.58411 | 17017 ft | 404 kts | 89° |
| 2026-05-05 13:36 | 37.78780 | 24.61963 | 17464 ft | 407 kts | 89° |
| 2026-05-05 13:36 | 37.78617 | 24.65516 | 17912 ft | 411 kts | 89° |
| 2026-05-05 13:37 | 37.78449 | 24.69159 | 18368 ft | 414 kts | 90° |
| 2026-05-05 13:37 | 37.78279 | 24.72817 | 18811 ft | 417 kts | 89° |
| 2026-05-05 13:37 | 37.78107 | 24.76465 | 19278 ft | 420 kts | 89° |
| 2026-05-05 13:37 | 37.77934 | 24.80120 | 19718 ft | 422 kts | 89° |
| 2026-05-05 13:38 | 37.77757 | 24.83859 | 20127 ft | 426 kts | 89° |
| 2026-05-05 13:38 | 37.77580 | 24.87598 | 20523 ft | 429 kts | 89° |
| 2026-05-05 13:38 | 37.77400 | 24.91326 | 20912 ft | 432 kts | 89° |
| 2026-05-05 13:38 | 37.77216 | 24.95144 | 21055 ft | 433 kts | 89° |
| 2026-05-05 13:39 | 37.77032 | 24.98924 | 21064 ft | 432 kts | 89° |
| 2026-05-05 13:39 | 37.76847 | 25.02692 | 21058 ft | 432 kts | 89° |
| 2026-05-05 13:39 | 37.76658 | 25.06501 | 21060 ft | 433 kts | 89° |
| 2026-05-05 13:39 | 37.76471 | 25.10267 | 21052 ft | 433 kts | 89° |
| 2026-05-05 13:40 | 37.76282 | 25.14054 | 21050 ft | 433 kts | 89° |
| 2026-05-05 13:40 | 37.76091 | 25.17831 | 21063 ft | 432 kts | 89° |
| 2026-05-05 13:40 | 37.75900 | 25.21596 | 21072 ft | 433 kts | 89° |
| 2026-05-05 13:40 | 37.75708 | 25.25383 | 21061 ft | 432 kts | 89° |
| 2026-05-05 13:41 | 37.75514 | 25.29177 | 21068 ft | 432 kts | 89° |
| 2026-05-05 13:41 | 37.75319 | 25.32968 | 21064 ft | 432 kts | 89° |
| 2026-05-05 13:41 | 37.75123 | 25.36736 | 21063 ft | 433 kts | 89° |
| 2026-05-05 13:41 | 37.74926 | 25.40490 | 21068 ft | 433 kts | 89° |
| 2026-05-05 13:42 | 37.74724 | 25.44316 | 21067 ft | 433 kts | 89° |
| 2026-05-05 13:42 | 37.74524 | 25.48079 | 21061 ft | 433 kts | 89° |
| 2026-05-05 13:42 | 37.74323 | 25.51855 | 21062 ft | 433 kts | 89° |
| 2026-05-05 13:42 | 37.74121 | 25.55633 | 21069 ft | 433 kts | 89° |
| 2026-05-05 13:43 | 37.73918 | 25.59411 | 21066 ft | 433 kts | 89° |
| 2026-05-05 13:43 | 37.73713 | 25.63196 | 21062 ft | 434 kts | 89° |
| 2026-05-05 13:43 | 37.73505 | 25.66999 | 21057 ft | 433 kts | 90° |
| 2026-05-05 13:43 | 37.73296 | 25.70788 | 20799 ft | 427 kts | 90° |
| 2026-05-05 13:44 | 37.73092 | 25.74477 | 20202 ft | 426 kts | 90° |
| 2026-05-05 13:44 | 37.72886 | 25.78198 | 19613 ft | 423 kts | 90° |
| 2026-05-05 13:44 | 37.72682 | 25.81865 | 19084 ft | 420 kts | 90° |
| 2026-05-05 13:44 | 37.72476 | 25.85520 | 18576 ft | 416 kts | 90° |
| 2026-05-05 13:45 | 37.72273 | 25.89113 | 18064 ft | 413 kts | 90° |
| 2026-05-05 13:45 | 37.72068 | 25.92705 | 17569 ft | 409 kts | 90° |
| 2026-05-05 13:45 | 37.71867 | 25.96239 | 17082 ft | 405 kts | 90° |
| 2026-05-05 13:45 | 37.71663 | 25.99784 | 16595 ft | 401 kts | 90° |
| 2026-05-05 13:46 | 37.71464 | 26.03235 | 16129 ft | 396 kts | 90° |
| 2026-05-05 13:46 | 37.71265 | 26.06675 | 15662 ft | 392 kts | 90° |
| 2026-05-05 13:46 | 37.71065 | 26.10119 | 15183 ft | 388 kts | 90° |
| 2026-05-05 13:46 | 37.70868 | 26.13480 | 14697 ft | 384 kts | 90° |
| 2026-05-05 13:47 | 37.70673 | 26.16804 | 14231 ft | 381 kts | 90° |
| 2026-05-05 13:47 | 37.70479 | 26.20092 | 13770 ft | 376 kts | 90° |
| 2026-05-05 13:47 | 37.70284 | 26.23398 | 13299 ft | 373 kts | 90° |
| 2026-05-05 13:47 | 37.70091 | 26.26604 | 12766 ft | 365 kts | 90° |
| 2026-05-05 13:48 | 37.69902 | 26.29745 | 11944 ft | 362 kts | 90° |
| 2026-05-05 13:48 | 37.69712 | 26.32903 | 11107 ft | 358 kts | 90° |
| 2026-05-05 13:48 | 37.69525 | 26.35968 | 10353 ft | 351 kts | 89° |
| 2026-05-05 13:48 | 37.69342 | 26.38951 | 9947 ft | 334 kts | 89° |
| 2026-05-05 13:49 | 37.69164 | 26.41813 | 9642 ft | 317 kts | 89° |
| 2026-05-05 13:49 | 37.68998 | 26.44513 | 9354 ft | 301 kts | 89° |
| 2026-05-05 13:49 | 37.68840 | 26.47067 | 9077 ft | 288 kts | 88° |
| 2026-05-05 13:49 | 37.68690 | 26.49542 | 8628 ft | 282 kts | 88° |
| 2026-05-05 13:50 | 37.68545 | 26.51984 | 8126 ft | 278 kts | 88° |
| 2026-05-05 13:50 | 37.68496 | 26.54389 | 7594 ft | 275 kts | 84° |
| 2026-05-05 13:50 | 37.68510 | 26.56812 | 7047 ft | 274 kts | 84° |
| 2026-05-05 13:50 | 37.68351 | 26.59199 | 6455 ft | 279 kts | 102° |
| 2026-05-05 13:51 | 37.67404 | 26.61323 | 5906 ft | 285 kts | 131° |
| 2026-05-05 13:51 | 37.65781 | 26.62733 | 5407 ft | 288 kts | 156° |
| 2026-05-05 13:51 | 37.63834 | 26.63305 | 5077 ft | 289 kts | 173° |
| 2026-05-05 13:51 | 37.61852 | 26.63559 | 4997 ft | 285 kts | 171° |
| 2026-05-05 13:52 | 37.59945 | 26.64019 | 4991 ft | 270 kts | 163° |
| 2026-05-05 13:52 | 37.58213 | 26.64730 | 4994 ft | 256 kts | 155° |
| 2026-05-05 13:52 | 37.56614 | 26.65660 | 5000 ft | 246 kts | 149° |
| 2026-05-05 13:52 | 37.55168 | 26.66747 | 5006 ft | 244 kts | 143° |
| 2026-05-05 13:53 | 37.53785 | 26.68019 | 5004 ft | 244 kts | 137° |
| 2026-05-05 13:53 | 37.52505 | 26.69418 | 5007 ft | 242 kts | 133° |
| 2026-05-05 13:53 | 37.51449 | 26.71028 | 4981 ft | 235 kts | 107° |
| 2026-05-05 13:53 | 37.51313 | 26.72940 | 4993 ft | 219 kts | 66° |
| 2026-05-05 13:54 | 37.52149 | 26.74453 | 5017 ft | 209 kts | 37° |
| 2026-05-05 13:54 | 37.53267 | 26.75641 | 5007 ft | 209 kts | 36° |
| 2026-05-05 13:54 | 37.54376 | 26.76824 | 5003 ft | 209 kts | 36° |
| 2026-05-05 13:54 | 37.55574 | 26.77666 | 4973 ft | 191 kts | 10° |
| 2026-05-05 13:55 | 37.56836 | 26.77661 | 5042 ft | 175 kts | 348° |
| 2026-05-05 13:55 | 37.57934 | 26.77002 | 5034 ft | 177 kts | 326° |
| 2026-05-05 13:55 | 37.58730 | 26.75787 | 5016 ft | 183 kts | 302° |
| 2026-05-05 13:55 | 37.59032 | 26.74200 | 5016 ft | 193 kts | 276° |
| 2026-05-05 13:56 | 37.58715 | 26.72544 | 5011 ft | 203 kts | 248° |
| 2026-05-05 13:56 | 37.57755 | 26.71205 | 5022 ft | 212 kts | 217° |
| 2026-05-05 13:56 | 37.56349 | 26.70629 | 5017 ft | 216 kts | 183° |
| 2026-05-05 13:56 | 37.54891 | 26.71016 | 5013 ft | 214 kts | 154° |
| 2026-05-05 13:57 | 37.53520 | 26.71756 | 5013 ft | 215 kts | 161° |
| 2026-05-05 13:57 | 37.52025 | 26.71871 | 4996 ft | 216 kts | 195° |
| 2026-05-05 13:57 | 37.50767 | 26.70972 | 5009 ft | 208 kts | 232° |
| 2026-05-05 13:57 | 37.50149 | 26.69418 | 5007 ft | 195 kts | 269° |
| 2026-05-05 13:58 | 37.50393 | 26.67852 | 4850 ft | 176 kts | 307° |
| 2026-05-05 13:58 | 37.51279 | 26.66879 | 4474 ft | 170 kts | 340° |
| 2026-05-05 13:58 | 37.52438 | 26.66727 | 4112 ft | 171 kts | 10° |
| 2026-05-05 13:58 | 37.53486 | 26.67436 | 3774 ft | 176 kts | 41° |
| 2026-05-05 13:59 | 37.54767 | 26.70086 | 2888 ft | 181 kts | 56° |
| 2026-05-05 13:59 | 37.55381 | 26.71481 | 2477 ft | 181 kts | 56° |
| 2026-05-05 14:00 | 37.56582 | 26.74232 | 2014 ft | 181 kts | 56° |
| 2026-05-05 14:00 | 37.56990 | 26.75164 | 2015 ft | 182 kts | 56° |
| 2026-05-05 14:00 | 37.57800 | 26.77019 | 2012 ft | 182 kts | 56° |
| 2026-05-05 14:00 | 37.58407 | 26.78409 | 2013 ft | 181 kts | 56° |
| 2026-05-05 14:01 | 37.59021 | 26.79813 | 2009 ft | 181 kts | 56° |
| 2026-05-05 14:01 | 37.59626 | 26.81200 | 2015 ft | 182 kts | 56° |
| 2026-05-05 14:01 | 37.60235 | 26.82596 | 2012 ft | 182 kts | 56° |
| 2026-05-05 14:01 | 37.60848 | 26.83999 | 2015 ft | 182 kts | 56° |
| 2026-05-05 14:02 | 37.61476 | 26.85343 | 1991 ft | 168 kts | 45° |
| 2026-05-05 14:02 | 37.62414 | 26.85950 | 1967 ft | 150 kts | 4° |
| 2026-05-05 14:02 | 37.63464 | 26.86016 | 1939 ft | 151 kts | 1° |
| 2026-05-05 14:02 | 37.64485 | 26.86010 | 1741 ft | 144 kts | 353° |
| 2026-05-05 14:03 | 37.65472 | 26.85878 | 1428 ft | 140 kts | 352° |
| 2026-05-05 14:03 | 37.66432 | 26.85752 | 1174 ft | 139 kts | 353° |
| 2026-05-05 14:03 | 37.67390 | 26.85616 | 848 ft | 137 kts | 357° |
| 2026-05-05 14:03 | 37.68301 | 26.85978 | 670 ft | 140 kts | 31° |
| 2026-05-05 14:04 | 37.68868 | 26.86949 | 441 ft | 141 kts | 66° |
| 2026-05-05 14:04 | 37.69026 | 26.88164 | 257 ft | 141 kts | 84° |
| 2026-05-05 14:04 | 37.69017 | 26.89414 | 129 ft | 149 kts | 91° |
| 2026-05-05 14:04 | 37.68939 | 26.90768 | 50 ft | 156 kts | 92° |
| 2026-05-05 14:05 | 37.68872 | 26.91957 | 36 ft | 92 kts | 94° |
| 2026-05-05 14:05 | 37.68866 | 26.92297 | 36 ft | 22 kts | 77° |
| 2026-05-05 14:05 | 37.68838 | 26.92380 | 36 ft | 9 kts | 222° |
| 2026-05-05 14:05 | 37.68845 | 26.92273 | 36 ft | 18 kts | 277° |
| 2026-05-05 14:06 | 37.68863 | 26.92058 | 36 ft | 28 kts | 275° |
| 2026-05-05 14:06 | 37.68878 | 26.91822 | 36 ft | 26 kts | 275° |
| 2026-05-05 14:06 | 37.68892 | 26.91597 | 36 ft | 25 kts | 274° |
| 2026-05-05 14:06 | 37.68904 | 26.91413 | 36 ft | 14 kts | 287° |
| 2026-05-05 14:07 | 37.68959 | 26.91364 | 36 ft | 9 kts | 4° |
| 2026-05-05 14:07 | 37.68972 | 26.91366 | 36 ft | 0 kts | 12° |
| 2026-05-05 14:07 | 37.68972 | 26.91367 | 35 ft | 0 kts | 19° |
| 2026-05-05 14:07 | 37.68981 | 26.91364 | 35 ft | 2 kts | 328° |
| 2026-05-05 14:08 | 37.69006 | 26.91333 | 35 ft | 5 kts | 332° |
| 2026-05-05 14:08 | 37.69046 | 26.91332 | 35 ft | 5 kts | 7° |
| 2026-05-05 14:08 | 37.69064 | 26.91334 | 35 ft | 0 kts | 5° |